Time;durP1;ratioP1;P1;durP2;ratioP2;P2;SDS_P1;SDS_P2;PMS_P1;PMS_P2;Temp;Humidity;BMP_temperature;BMP_pressure;BME280_temperature;BME280_humidity;BME280_pressure;Samples;Min_cycle;Max_cycle;Signal;HPM_P1;HPM_P2
2021/12/31 00:02:19;;;;;;;3.30;3.00;;;;;;;13.16;100.00;100785.72;5092052;28;20207;-76
2021/12/31 00:04:45;;;;;;;1.73;1.63;;;;;;;13.16;100.00;100786.53;5091875;28;20178;-77
2021/12/31 00:07:11;;;;;;;1.97;1.87;;;;;;;13.16;100.00;100794.75;5091986;28;20553;-76
2021/12/31 00:09:37;;;;;;;2.40;2.13;;;;;;;13.22;100.00;100770.78;5092011;28;20173;-77
2021/12/31 00:12:04;;;;;;;2.20;2.07;;;;;;;13.20;100.00;100782.06;5091944;28;20617;-76
2021/12/31 00:14:30;;;;;;;2.17;2.07;;;;;;;13.21;100.00;100793.84;5091646;28;20669;-77
2021/12/31 00:16:55;;;;;;;2.73;2.60;;;;;;;13.22;100.00;100785.31;5091760;28;20166;-77
2021/12/31 00:19:21;;;;;;;5.17;2.13;;;;;;;13.21;100.00;100785.63;5091756;28;20213;-77
2021/12/31 00:21:49;;;;;;;0.73;0.73;;;;;;;13.24;100.00;100790.47;5091623;28;20204;-77
2021/12/31 00:24:14;;;;;;;2.53;2.33;;;;;;;13.21;100.00;100793.84;5091652;28;20170;-76
2021/12/31 00:26:39;;;;;;;2.27;2.17;;;;;;;13.18;100.00;100791.72;5091322;28;20174;-76
2021/12/31 00:29:05;;;;;;;1.23;1.20;;;;;;;13.16;100.00;100792.03;5091563;28;20398;-77
2021/12/31 00:31:30;;;;;;;1.77;1.67;;;;;;;13.24;100.00;100795.94;5091577;28;20174;-77
2021/12/31 00:33:56;;;;;;;3.07;1.93;;;;;;;13.25;100.00;100794.81;5091427;28;20177;-77
2021/12/31 00:36:21;;;;;;;1.60;1.50;;;;;;;13.27;100.00;100792.56;5091296;28;20196;-76
2021/12/31 00:38:46;;;;;;;2.67;1.67;;;;;;;13.29;100.00;100795.78;5091416;28;20182;-76
2021/12/31 00:41:12;;;;;;;1.27;1.10;;;;;;;13.30;100.00;100792.72;5089784;28;20170;-77
2021/12/31 00:43:37;;;;;;;3.70;1.57;;;;;;;13.27;100.00;100784.31;5091255;28;20173;-77
2021/12/31 00:46:03;;;;;;;0.90;0.70;;;;;;;13.24;100.00;100785.78;5091071;28;20169;-76
2021/12/31 00:48:28;;;;;;;0.83;0.83;;;;;;;13.23;100.00;100794.34;5091253;28;20170;-77
2021/12/31 00:50:54;;;;;;;1.13;1.13;;;;;;;13.18;100.00;100800.78;5091248;28;20170;-77
2021/12/31 00:53:20;;;;;;;2.10;2.00;;;;;;;13.17;100.00;100796.41;5091103;28;20170;-76
2021/12/31 00:55:45;;;;;;;2.47;2.27;;;;;;;13.19;100.00;100796.13;5091297;28;20170;-76
2021/12/31 00:58:10;;;;;;;2.10;2.00;;;;;;;13.17;100.00;100799.16;5089664;28;20265;-77
2021/12/31 01:00:36;;;;;;;1.10;1.07;;;;;;;13.19;100.00;100791.44;5091227;28;20293;-77
2021/12/31 01:03:02;;;;;;;2.37;2.17;;;;;;;13.21;100.00;100797.41;5090984;28;20610;-77
2021/12/31 01:05:27;;;;;;;1.07;1.07;;;;;;;13.17;100.00;100804.63;5090747;28;20177;-77
2021/12/31 01:07:53;;;;;;;2.40;2.20;;;;;;;13.13;100.00;100802.84;5089697;28;20177;-77
2021/12/31 01:10:19;;;;;;;3.10;2.13;;;;;;;13.09;100.00;100802.66;5090771;28;20177;-77
2021/12/31 01:12:45;;;;;;;1.20;1.13;;;;;;;12.98;100.00;100799.41;5090865;28;20633;-76
2021/12/31 01:15:19;;;;;;;1.47;1.37;;;;;;;12.81;100.00;100785.66;5090504;28;20176;-77
2021/12/31 01:20:18;;;;;;;1.90;1.77;;;;;;;12.54;100.00;100792.16;5090755;28;20231;-76
2021/12/31 01:22:44;;;;;;;2.00;1.90;;;;;;;12.51;100.00;100790.88;5090598;28;20209;-76
2021/12/31 01:25:10;;;;;;;0.70;0.70;;;;;;;12.58;100.00;100806.03;5090634;28;20621;-76
2021/12/31 01:27:38;;;;;;;1.20;1.20;;;;;;;12.56;100.00;100805.53;5090636;28;20174;-76
2021/12/31 01:30:06;;;;;;;6.97;1.07;;;;;;;12.61;100.00;100797.19;5090646;28;20162;-76
2021/12/31 01:32:31;;;;;;;1.27;1.20;;;;;;;12.68;100.00;100798.34;5089220;28;20170;-76
2021/12/31 01:34:57;;;;;;;0.43;0.43;;;;;;;12.71;100.00;100786.75;5090804;28;20623;-77
2021/12/31 01:37:22;;;;;;;0.90;0.90;;;;;;;12.78;100.00;100789.84;5090456;28;20166;-76
2021/12/31 01:39:48;;;;;;;2.47;2.27;;;;;;;12.80;100.00;100784.03;5090715;28;20686;-76
2021/12/31 01:42:14;;;;;;;0.90;0.87;;;;;;;12.81;100.00;100788.41;5090378;28;20174;-76
2021/12/31 01:44:45;;;;;;;1.13;1.10;;;;;;;12.88;100.00;100802.47;5088979;28;20540;-76
2021/12/31 01:47:15;;;;;;;1.40;1.33;;;;;;;12.84;100.00;100792.44;5090518;28;20158;-77
2021/12/31 01:49:54;;;;;;;2.00;0.93;;;;;;;12.82;100.00;100793.56;5090552;28;20243;-76
2021/12/31 01:52:20;;;;;;;0.77;0.77;;;;;;;12.82;100.00;100787.25;5090451;28;20178;-77
2021/12/31 01:54:46;;;;;;;0.33;0.33;;;;;;;12.77;100.00;100785.50;5090059;28;20180;-76
2021/12/31 01:57:13;;;;;;;1.57;1.30;;;;;;;12.81;100.00;100791.13;5090748;28;20174;-77
2021/12/31 01:59:38;;;;;;;1.20;1.20;;;;;;;12.82;100.00;100792.75;5088848;28;20640;-76
2021/12/31 02:02:06;;;;;;;1.33;1.23;;;;;;;12.86;100.00;100795.66;5090281;28;20209;-76
2021/12/31 02:04:32;;;;;;;1.30;1.20;;;;;;;12.86;100.00;100780.00;5090240;28;20178;-76
2021/12/31 02:06:58;;;;;;;5.00;2.97;;;;;;;12.90;100.00;100788.44;5090280;28;20182;-76
2021/12/31 02:09:24;;;;;;;1.17;1.17;;;;;;;12.93;100.00;100777.63;5090513;28;20193;-76
2021/12/31 02:11:53;;;;;;;1.33;1.23;;;;;;;12.93;100.00;100791.34;5094264;28;20657;-76
2021/12/31 02:14:19;;;;;;;1.70;1.60;;;;;;;12.98;100.00;100788.44;5094603;28;20182;-76
2021/12/31 02:16:45;;;;;;;1.90;1.80;;;;;;;12.96;100.00;100790.69;5094110;28;20673;-77
2021/12/31 02:19:16;;;;;;;2.47;2.27;;;;;;;12.91;100.00;100787.31;5094077;28;20197;-77
2021/12/31 02:21:43;;;;;;;1.20;1.10;;;;;;;12.83;100.00;100794.38;5093989;28;20200;-76
2021/12/31 02:24:09;;;;;;;0.90;0.70;;;;;;;12.78;100.00;100720.50;5093957;28;20252;-76
2021/12/31 02:26:34;;;;;;;2.87;1.13;;;;;;;12.70;100.00;100790.59;5093940;28;20635;-77
2021/12/31 02:28:59;;;;;;;2.17;1.30;;;;;;;12.65;100.00;100729.66;5093881;28;20173;-76
2021/12/31 02:31:25;;;;;;;1.37;1.27;;;;;;;12.63;100.00;100740.94;5094257;28;20278;-76
2021/12/31 02:33:50;;;;;;;5.90;0.90;;;;;;;12.64;100.00;100748.03;5093885;28;20173;-77
2021/12/31 02:36:17;;;;;;;1.47;1.37;;;;;;;12.67;100.00;100746.59;5093634;28;20177;-76
2021/12/31 02:38:43;;;;;;;1.47;1.37;;;;;;;12.66;100.00;100750.44;5093805;28;20170;-77
2021/12/31 02:41:09;;;;;;;0.70;0.70;;;;;;;12.64;100.00;100780.91;5093395;28;20680;-76
2021/12/31 02:43:35;;;;;;;2.13;2.03;;;;;;;12.63;100.00;100762.06;5092310;28;20177;-77
2021/12/31 02:46:00;;;;;;;1.00;1.00;;;;;;;12.62;100.00;100771.41;5094785;28;20174;-77
2021/12/31 02:48:27;;;;;;;1.37;1.10;;;;;;;12.61;100.00;100799.94;5094406;28;20278;-76
2021/12/31 02:50:56;;;;;;;1.13;1.13;;;;;;;12.64;100.00;100796.56;5094017;28;20197;-76
2021/12/31 02:53:40;;;;;;;1.73;0.83;;;;;;;12.61;100.00;100808.16;5093585;28;20200;-77
2021/12/31 02:56:12;;;;;;;1.07;1.07;;;;;;;12.59;100.00;100816.72;5092096;28;20594;-77
2021/12/31 02:58:39;;;;;;;2.17;1.80;;;;;;;12.61;100.00;100810.91;5093433;28;20240;-76
2021/12/31 03:01:06;;;;;;;0.80;0.80;;;;;;;12.56;100.00;100808.28;5093316;28;20209;-77
2021/12/31 03:03:34;;;;;;;2.27;2.07;;;;;;;12.45;100.00;100803.09;5093393;28;20291;-76
2021/12/31 03:06:00;;;;;;;1.50;1.40;;;;;;;12.42;100.00;100809.19;5093058;28;20184;-76
2021/12/31 03:08:30;;;;;;;1.20;1.20;;;;;;;12.43;100.00;100812.72;5093321;28;20192;-77
2021/12/31 03:10:56;;;;;;;0.80;0.80;;;;;;;12.42;100.00;100808.38;5093380;28;20178;-76
2021/12/31 03:13:23;;;;;;;1.53;1.43;;;;;;;12.42;100.00;100803.69;5091771;28;20188;-76
2021/12/31 03:15:50;;;;;;;2.50;2.20;;;;;;;12.41;100.00;100815.78;5091564;28;20264;-76
2021/12/31 03:18:18;;;;;;;2.33;2.23;;;;;;;12.40;100.00;100814.19;5092979;28;20634;-76
2021/12/31 03:20:57;;;;;;;2.37;2.27;;;;;;;12.40;100.00;100803.22;5092912;28;20210;-76
2021/12/31 03:23:23;;;;;;;16.23;3.97;;;;;;;12.37;100.00;100800.31;5091186;28;20645;-77
2021/12/31 03:25:48;;;;;;;3.30;3.10;;;;;;;12.42;100.00;100806.44;5092943;28;20174;-77
2021/12/31 03:28:13;;;;;;;2.80;2.60;;;;;;;12.46;100.00;100809.38;5092889;28;20220;-77
2021/12/31 03:30:39;;;;;;;2.73;2.53;;;;;;;12.47;100.00;100798.09;5092800;28;20181;-77
2021/12/31 03:33:04;;;;;;;1.70;1.60;;;;;;;12.46;100.00;100799.22;5093255;28;20208;-77
2021/12/31 03:35:30;;;;;;;2.50;2.40;;;;;;;12.47;100.00;100835.66;5092394;28;20699;-77
2021/12/31 03:37:55;;;;;;;1.77;1.67;;;;;;;12.54;100.00;100810.53;5092691;28;20189;-77
2021/12/31 03:40:22;;;;;;;2.57;2.43;;;;;;;12.57;100.00;100801.69;5092682;28;20668;-77
2021/12/31 03:42:47;;;;;;;1.40;1.40;;;;;;;12.56;100.00;100808.28;5092340;28;20249;-77
2021/12/31 03:45:12;;;;;;;1.90;1.80;;;;;;;12.56;100.00;100795.38;5092193;28;20607;-77
2021/12/31 03:47:38;;;;;;;2.23;2.10;;;;;;;12.57;100.00;100804.41;5092483;28;20201;-77
2021/12/31 03:50:04;;;;;;;3.33;3.13;;;;;;;12.54;100.00;100807.78;5092651;28;20174;-77
2021/12/31 03:52:29;;;;;;;3.10;2.87;;;;;;;12.52;100.00;100802.63;5092375;28;20201;-76
2021/12/31 03:54:54;;;;;;;2.40;2.20;;;;;;;12.52;100.00;100799.91;5092129;28;20260;-77
2021/12/31 03:57:20;;;;;;;2.63;1.90;;;;;;;12.51;100.00;100807.31;5092442;28;20177;-77
2021/12/31 03:59:45;;;;;;;2.83;2.63;;;;;;;12.50;100.00;100813.91;5092102;28;20205;-77
2021/12/31 04:02:10;;;;;;;1.67;1.57;;;;;;;12.54;100.00;100805.06;5090984;28;20588;-77
2021/12/31 04:04:36;;;;;;;1.63;1.53;;;;;;;12.57;100.00;100816.19;5092257;28;20182;-77
2021/12/31 04:07:01;;;;;;;2.13;2.03;;;;;;;12.62;100.00;100805.09;5092209;28;20265;-77
2021/12/31 04:09:26;;;;;;;2.53;2.43;;;;;;;12.67;100.00;100828.81;5092061;28;20261;-77
2021/12/31 04:11:52;;;;;;;3.00;2.80;;;;;;;12.66;100.00;100827.22;5092063;28;20636;-77
2021/12/31 04:14:17;;;;;;;1.80;1.70;;;;;;;12.68;100.00;100823.03;5091781;28;20191;-76
2021/12/31 04:16:42;;;;;;;1.23;1.23;;;;;;;12.70;100.00;100809.78;5091681;28;20184;-76
2021/12/31 04:19:08;;;;;;;3.50;2.77;;;;;;;12.69;100.00;100813.66;5091795;28;20199;-77
2021/12/31 04:21:34;;;;;;;4.13;3.83;;;;;;;12.67;100.00;100823.34;5091755;28;20645;-77
2021/12/31 04:24:09;;;;;;;2.17;2.07;;;;;;;12.70;100.00;100809.00;5092196;28;20193;-77
2021/12/31 04:26:34;;;;;;;4.90;3.20;;;;;;;12.73;100.00;100817.41;5091584;28;20588;-76
2021/12/31 04:29:00;;;;;;;2.70;2.60;;;;;;;12.77;100.00;100804.69;5091511;28;20220;-77
2021/12/31 04:31:25;;;;;;;7.00;1.47;;;;;;;12.79;100.00;100802.44;5091598;28;20177;-77
2021/12/31 04:33:51;;;;;;;1.60;1.50;;;;;;;12.78;100.00;100800.00;5091518;28;20596;-76
2021/12/31 04:36:16;;;;;;;1.17;1.07;;;;;;;12.78;100.00;100789.03;5091359;28;20170;-77
2021/12/31 04:38:41;;;;;;;1.10;1.07;;;;;;;12.77;100.00;100803.88;5091503;28;20170;-77
2021/12/31 04:41:07;;;;;;;1.47;1.47;;;;;;;12.81;100.00;100810.34;5091118;28;20214;-76
2021/12/31 04:43:32;;;;;;;2.23;2.13;;;;;;;12.82;100.00;100792.75;5091487;28;20232;-77
2021/12/31 04:45:58;;;;;;;1.63;1.53;;;;;;;12.84;100.00;100797.91;5091193;28;20230;-77
2021/12/31 04:48:23;;;;;;;3.30;2.40;;;;;;;12.86;100.00;100782.75;5091295;28;20170;-77
2021/12/31 04:50:49;;;;;;;5.93;1.43;;;;;;;12.88;100.00;100779.72;5091529;28;20518;-77
2021/12/31 04:53:14;;;;;;;1.13;1.03;;;;;;;12.90;100.00;100777.47;5091163;28;20581;-76
2021/12/31 04:55:40;;;;;;;0.97;0.97;;;;;;;12.90;100.00;100781.00;5090773;28;20238;-77
2021/12/31 04:58:05;;;;;;;3.10;1.60;;;;;;;12.97;100.00;100788.75;5091353;28;20600;-76
2021/12/31 05:00:30;;;;;;;1.13;1.13;;;;;;;12.98;100.00;100774.72;5091038;28;20217;-76
2021/12/31 05:02:56;;;;;;;0.93;0.93;;;;;;;12.97;100.00;100775.84;5091116;28;20182;-77
2021/12/31 05:05:21;;;;;;;1.80;1.70;;;;;;;12.93;100.00;100766.66;5090778;28;20305;-77
2021/12/31 05:07:46;;;;;;;1.07;0.90;;;;;;;12.93;100.00;100780.38;5090941;28;20178;-76
2021/12/31 05:10:12;;;;;;;1.17;1.07;;;;;;;12.95;100.00;100774.56;5090922;28;20185;-76
2021/12/31 05:12:38;;;;;;;1.37;0.90;;;;;;;12.94;100.00;100762.78;5091029;28;20193;-76
2021/12/31 05:15:07;;;;;;;1.87;1.10;;;;;;;12.99;100.00;100768.09;5090582;28;20621;-76
2021/12/31 05:17:33;;;;;;;1.63;1.27;;;;;;;13.00;100.00;100755.19;5090861;28;20256;-76
2021/12/31 05:19:59;;;;;;;1.43;0.97;;;;;;;12.98;100.00;100765.69;5090686;28;20292;-76
2021/12/31 05:22:24;;;;;;;0.90;0.90;;;;;;;13.02;100.00;100744.75;5090646;28;20182;-77
2021/12/31 05:24:49;;;;;;;0.40;0.40;;;;;;;13.11;100.00;100842.38;5090803;28;20169;-77
2021/12/31 05:27:15;;;;;;;1.77;0.90;;;;;;;13.10;100.00;100760.38;5090564;28;20170;-76
2021/12/31 05:29:40;;;;;;;0.70;0.70;;;;;;;13.16;100.00;100759.09;5090705;28;20223;-76
2021/12/31 05:32:06;;;;;;;0.53;0.53;;;;;;;13.13;100.00;100764.44;5090621;28;20170;-76
2021/12/31 05:34:31;;;;;;;0.43;0.43;;;;;;;13.16;100.00;100772.00;5090557;28;20208;-76
2021/12/31 05:36:57;;;;;;;2.07;0.83;;;;;;;13.17;100.00;100766.22;5090447;28;20173;-76
2021/12/31 05:39:22;;;;;;;0.60;0.60;;;;;;;13.19;100.00;100763.19;5090399;28;20225;-76
2021/12/31 05:41:48;;;;;;;0.97;0.47;;;;;;;13.20;100.00;100762.06;5090246;28;20174;-76
2021/12/31 05:44:13;;;;;;;0.47;0.47;;;;;;;13.23;100.00;100766.91;5089958;28;20176;-77
2021/12/31 05:46:44;;;;;;;0.30;0.30;;;;;;;13.21;100.00;100747.22;5090178;28;20587;-76
2021/12/31 05:49:09;;;;;;;1.03;0.77;;;;;;;13.21;100.00;100760.94;5090627;28;20629;-76
2021/12/31 05:51:34;;;;;;;0.40;0.37;;;;;;;13.24;99.87;100768.50;5090304;28;20161;-77
2021/12/31 05:54:00;;;;;;;3.70;0.83;;;;;;;13.23;99.78;100758.66;5090911;28;20182;-76
2021/12/31 05:56:25;;;;;;;9.03;0.83;;;;;;;13.25;98.96;100745.44;5090079;28;20173;-76
2021/12/31 05:58:50;;;;;;;0.53;0.50;;;;;;;13.24;98.86;100758.34;5090440;28;20170;-77
2021/12/31 06:01:16;;;;;;;0.50;0.50;;;;;;;13.32;97.93;100775.97;5090254;28;20209;-77
2021/12/31 06:03:41;;;;;;;0.77;0.40;;;;;;;13.35;97.20;100765.13;5090302;28;20253;-77
2021/12/31 06:06:06;;;;;;;0.77;0.77;;;;;;;13.35;97.23;100762.41;5090007;28;20506;-77
2021/12/31 06:08:32;;;;;;;3.23;1.07;;;;;;;13.30;97.83;100767.22;5090245;28;20268;-77
2021/12/31 06:10:57;;;;;;;1.20;1.13;;;;;;;13.30;97.91;100748.00;5090430;28;20269;-77
2021/12/31 06:13:22;;;;;;;0.83;0.70;;;;;;;13.27;98.02;100748.66;5090418;28;20166;-77
2021/12/31 06:15:55;;;;;;;1.37;1.30;;;;;;;13.26;97.91;100758.03;5090008;28;20185;-77
2021/12/31 06:18:20;;;;;;;2.17;1.47;;;;;;;13.32;96.70;100752.06;5090264;28;20173;-77
2021/12/31 06:20:45;;;;;;;0.40;0.40;;;;;;;13.40;96.09;100755.94;5090033;28;20208;-77
2021/12/31 06:23:11;;;;;;;0.43;0.23;;;;;;;13.34;96.26;100758.03;5089974;28;20260;-77
2021/12/31 06:25:36;;;;;;;1.03;0.87;;;;;;;13.35;95.86;100758.84;5089815;28;20199;-77
2021/12/31 06:28:02;;;;;;;4.33;0.70;;;;;;;13.39;95.22;100762.56;5089986;28;20178;-77
2021/12/31 06:30:28;;;;;;;0.30;0.30;;;;;;;13.39;95.13;100762.56;5090020;28;20634;-77
2021/12/31 06:32:54;;;;;;;0.63;0.60;;;;;;;13.37;95.45;100762.06;5090056;28;20523;-77
2021/12/31 06:35:20;;;;;;;3.27;0.73;;;;;;;13.35;95.56;100750.63;5089607;28;20174;-77
2021/12/31 06:37:47;;;;;;;1.03;0.50;;;;;;;13.32;95.53;100754.00;5090002;28;20240;-77
2021/12/31 06:40:14;;;;;;;0.63;0.50;;;;;;;13.42;94.57;100748.19;5089897;28;20201;-77
2021/12/31 06:42:39;;;;;;;0.80;0.50;;;;;;;13.43;93.88;100748.97;5089514;28;20173;-77
2021/12/31 06:45:06;;;;;;;2.77;0.57;;;;;;;13.41;93.78;100738.34;5089743;28;20630;-76
2021/12/31 06:47:31;;;;;;;0.50;0.33;;;;;;;13.39;93.90;100735.91;5089896;28;20178;-77
2021/12/31 06:49:57;;;;;;;0.50;0.33;;;;;;;13.41;93.37;100749.31;5089890;28;20174;-77
2021/12/31 06:52:22;;;;;;;0.57;0.37;;;;;;;13.48;92.56;100737.88;5089970;28;20166;-77
2021/12/31 06:54:47;;;;;;;0.17;0.17;;;;;;;13.49;92.40;100739.47;5089499;28;20667;-77
2021/12/31 06:57:13;;;;;;;1.07;0.50;;;;;;;13.50;92.32;100738.34;5092871;28;20202;-77
2021/12/31 06:59:38;;;;;;;4.43;0.30;;;;;;;13.47;92.20;100749.97;5093334;28;20284;-76
2021/12/31 07:02:04;;;;;;;0.20;0.20;;;;;;;13.51;91.71;100738.00;5093404;28;20269;-77
2021/12/31 07:04:29;;;;;;;0.50;0.50;;;;;;;13.49;91.87;100732.03;5093368;28;20162;-77
2021/12/31 07:06:54;;;;;;;7.67;1.47;;;;;;;13.45;92.17;100731.06;5093535;28;20622;-77
2021/12/31 07:09:20;;;;;;;0.93;0.43;;;;;;;13.38;93.10;100737.03;5093230;28;20690;-76
2021/12/31 07:11:45;;;;;;;0.17;0.17;;;;;;;13.31;93.76;100736.72;5093232;28;20168;-77
2021/12/31 07:14:11;;;;;;;0.40;0.40;;;;;;;13.29;93.46;100730.75;5093115;28;20166;-76
2021/12/31 07:16:36;;;;;;;1.27;0.43;;;;;;;13.34;93.22;100738.03;5092763;28;20166;-76
2021/12/31 07:19:02;;;;;;;1.53;0.80;;;;;;;13.29;93.48;100718.94;5093002;28;20182;-76
2021/12/31 07:21:27;;;;;;;0.27;0.20;;;;;;;13.30;92.95;100717.81;5092896;28;20189;-77
2021/12/31 07:23:52;;;;;;;0.60;0.60;;;;;;;13.26;93.33;100719.59;5092929;28;20170;-77
2021/12/31 07:26:18;;;;;;;0.17;0.17;;;;;;;13.23;93.21;100717.50;5093030;28;20182;-77
2021/12/31 07:28:43;;;;;;;0.37;0.37;;;;;;;13.19;93.30;100711.06;5092768;28;20257;-77
2021/12/31 07:31:12;;;;;;;0.13;0.13;;;;;;;13.14;93.77;100705.69;5092799;28;20185;-76
2021/12/31 07:33:38;;;;;;;0.47;0.47;;;;;;;13.06;94.82;100712.78;5092712;28;20168;-76
2021/12/31 07:36:04;;;;;;;0.80;0.80;;;;;;;13.01;94.81;100704.69;5092652;28;20598;-77
2021/12/31 07:38:35;;;;;;;0.28;0.28;;;;;;;12.98;95.38;100708.09;5092230;28;20466;-76
2021/12/31 07:41:01;;;;;;;0.30;0.30;;;;;;;13.05;94.50;100708.44;5092260;28;20213;-77
2021/12/31 07:43:27;;;;;;;0.27;0.27;;;;;;;13.05;94.55;100687.31;5092554;28;20182;-76
2021/12/31 07:45:53;;;;;;;0.40;0.20;;;;;;;13.14;93.51;100695.50;5092568;28;20181;-76
2021/12/31 07:48:19;;;;;;;0.70;0.33;;;;;;;13.15;93.73;100701.81;5092494;28;20244;-77
2021/12/31 07:50:45;;;;;;;0.00;0.00;;;;;;;13.22;93.17;100685.72;5092640;28;20239;-77
2021/12/31 07:53:10;;;;;;;0.53;0.53;;;;;;;13.22;92.95;100691.22;5092428;28;20572;-76
2021/12/31 07:55:36;;;;;;;0.10;0.10;;;;;;;13.29;92.21;100694.25;5091981;28;20775;-76
2021/12/31 07:58:02;;;;;;;0.13;0.10;;;;;;;13.27;91.91;100697.31;5092495;28;20369;-77
2021/12/31 08:00:27;;;;;;;0.57;0.30;;;;;;;13.24;92.63;100699.91;5091043;28;20209;-77
2021/12/31 08:02:56;;;;;;;0.30;0.30;;;;;;;13.28;92.32;100685.22;5090845;28;20181;-77
2021/12/31 08:05:26;;;;;;;0.30;0.23;;;;;;;13.26;92.23;100692.16;5091891;28;20640;-76
2021/12/31 08:07:51;;;;;;;0.20;0.20;;;;;;;13.23;92.50;100698.31;5091476;28;20219;-77
2021/12/31 08:10:17;;;;;;;0.17;0.17;;;;;;;13.24;92.53;100708.16;5091966;28;20177;-76
2021/12/31 08:12:43;;;;;;;0.63;0.10;;;;;;;13.32;92.08;100702.66;5092151;28;20201;-76
2021/12/31 08:15:09;;;;;;;0.10;0.10;;;;;;;13.28;92.26;100695.38;5091771;28;20177;-77
2021/12/31 08:17:34;;;;;;;4.73;0.70;;;;;;;13.27;92.35;100696.53;5091918;28;20178;-76
2021/12/31 08:20:00;;;;;;;1.37;0.60;;;;;;;13.31;91.97;100692.03;5091733;28;20564;-77
2021/12/31 08:22:25;;;;;;;0.63;0.40;;;;;;;13.41;91.00;100697.16;5091482;28;20186;-77
2021/12/31 08:24:51;;;;;;;0.17;0.17;;;;;;;13.42;91.16;100728.97;5091379;28;20181;-77
2021/12/31 08:27:17;;;;;;;0.17;0.17;;;;;;;13.48;90.45;100702.19;5091655;28;20234;-77
2021/12/31 08:29:42;;;;;;;0.60;0.60;;;;;;;13.36;91.09;100700.09;5091648;28;20210;-76
2021/12/31 08:32:08;;;;;;;0.53;0.13;;;;;;;13.38;91.35;100693.13;5090372;28;20641;-76
2021/12/31 08:34:33;;;;;;;0.10;0.10;;;;;;;13.42;90.96;100676.81;5091442;28;20174;-77
2021/12/31 08:37:00;;;;;;;0.20;0.10;;;;;;;13.49;90.32;100690.06;5091377;28;20218;-77
2021/12/31 08:39:26;;;;;;;0.13;0.13;;;;;;;13.53;90.13;100702.81;5091312;28;20542;-76
2021/12/31 08:41:51;;;;;;;0.10;0.10;;;;;;;13.57;89.54;100698.28;5091304;28;20170;-77
2021/12/31 08:44:17;;;;;;;0.20;0.20;;;;;;;13.55;89.91;100688.75;5091223;28;20161;-77
2021/12/31 08:46:43;;;;;;;0.30;0.20;;;;;;;13.59;89.35;100693.25;5091134;28;20178;-76
2021/12/31 08:49:08;;;;;;;0.00;0.00;;;;;;;13.69;89.16;100698.41;5091438;28;20173;-76
2021/12/31 08:51:35;;;;;;;0.80;0.33;;;;;;;13.66;89.04;100679.84;5091136;28;20178;-77
2021/12/31 08:54:00;;;;;;;2.63;0.40;;;;;;;13.70;88.79;100730.22;5091152;28;20702;-76
2021/12/31 08:56:25;;;;;;;0.50;0.50;;;;;;;13.74;89.00;100685.63;5091024;28;20252;-76
2021/12/31 08:58:51;;;;;;;0.30;0.30;;;;;;;13.72;88.96;100690.66;5091109;28;20630;-76
2021/12/31 09:01:16;;;;;;;0.27;0.27;;;;;;;13.70;89.05;100688.25;5091090;28;20205;-77
2021/12/31 09:03:42;;;;;;;0.00;0.00;;;;;;;13.69;89.07;100701.16;5091047;28;20170;-76
2021/12/31 09:06:07;;;;;;;0.63;0.40;;;;;;;13.72;88.71;100694.22;5090700;28;20264;-76
2021/12/31 09:08:34;;;;;;;0.27;0.27;;;;;;;13.73;88.41;100692.28;5090977;28;20170;-76
2021/12/31 09:11:00;;;;;;;0.10;0.10;;;;;;;13.74;88.15;100697.44;5089572;28;20263;-76
2021/12/31 09:13:27;;;;;;;0.40;0.33;;;;;;;13.71;88.33;100695.34;5091037;28;20269;-76
2021/12/31 09:15:53;;;;;;;0.27;0.27;;;;;;;13.66;88.87;100703.75;5090539;28;20177;-76
2021/12/31 09:18:19;;;;;;;7.83;0.47;;;;;;;13.69;88.49;100706.66;5090722;28;20174;-77
2021/12/31 09:20:44;;;;;;;0.10;0.10;;;;;;;13.72;88.33;100721.66;5089768;28;20208;-76
2021/12/31 09:23:10;;;;;;;0.23;0.23;;;;;;;13.73;88.28;100722.47;5090594;28;20550;-76
2021/12/31 09:25:35;;;;;;;1.20;0.40;;;;;;;13.68;88.76;100720.72;5090473;28;20637;-77
2021/12/31 09:28:00;;;;;;;0.57;0.30;;;;;;;13.71;88.61;100733.78;5090819;28;20595;-76
2021/12/31 09:30:26;;;;;;;0.13;0.13;;;;;;;13.77;87.94;100740.75;5090765;28;20637;-76
2021/12/31 09:32:51;;;;;;;0.10;0.10;;;;;;;13.76;88.05;100741.88;5090581;28;20174;-76
2021/12/31 09:35:17;;;;;;;1.17;0.13;;;;;;;13.74;88.34;100751.53;5090295;28;20534;-76
2021/12/31 09:37:42;;;;;;;0.20;0.20;;;;;;;13.68;88.97;100734.44;5090842;28;20180;-76
2021/12/31 09:40:08;;;;;;;0.10;0.10;;;;;;;13.67;89.07;100755.59;5090662;28;20657;-76
2021/12/31 09:42:36;;;;;;;0.33;0.33;;;;;;;13.73;88.11;100744.44;5090028;28;20303;-77
2021/12/31 09:45:01;;;;;;;0.60;0.60;;;;;;;13.76;87.71;100758.34;5090273;28;20174;-76
2021/12/31 09:47:26;;;;;;;0.00;0.00;;;;;;;13.73;88.27;100771.91;5090411;28;20173;-76
2021/12/31 09:49:52;;;;;;;0.27;0.27;;;;;;;13.63;89.17;100762.88;5090415;28;20668;-76
2021/12/31 09:52:18;;;;;;;0.20;0.20;;;;;;;13.65;88.92;100763.38;5090834;28;20315;-77
2021/12/31 09:54:45;;;;;;;0.10;0.10;;;;;;;13.64;89.05;100775.47;5090228;28;20177;-77
2021/12/31 09:57:18;;;;;;;0.77;0.37;;;;;;;13.66;88.86;100778.69;5090260;28;20188;-76
2021/12/31 09:59:44;;;;;;;0.17;0.17;;;;;;;13.65;88.96;100763.38;5090195;28;20561;-76
2021/12/31 10:02:10;;;;;;;0.33;0.33;;;;;;;13.74;87.91;100762.53;5090578;28;20173;-76
2021/12/31 10:04:54;;;;;;;0.37;0.37;;;;;;;13.75;87.97;100764.19;5090191;28;20180;-76
2021/12/31 10:07:21;;;;;;;0.33;0.33;;;;;;;13.77;87.54;100759.97;5089128;28;20185;-76
2021/12/31 10:10:11;;;;;;;0.77;0.40;;;;;;;13.74;87.90;100779.81;5090242;28;20182;-76
2021/12/31 10:12:46;;;;;;;0.10;0.10;;;;;;;13.86;86.26;100768.16;5090376;28;20210;-76
2021/12/31 10:15:11;;;;;;;0.33;0.33;;;;;;;13.91;85.31;100770.78;5089984;28;20169;-76
2021/12/31 10:17:37;;;;;;;0.83;0.83;;;;;;;13.90;85.73;100769.16;5090174;28;20189;-76
2021/12/31 10:20:03;;;;;;;0.27;0.27;;;;;;;13.75;87.42;100755.94;5090127;28;20212;-75
2021/12/31 10:22:29;;;;;;;0.40;0.40;;;;;;;13.83;86.00;100772.38;5089969;28;20197;-76
2021/12/31 10:24:54;;;;;;;0.00;0.00;;;;;;;13.81;86.53;100765.59;5089876;28;20174;-76
2021/12/31 10:27:20;;;;;;;0.57;0.57;;;;;;;13.78;86.25;100760.78;5090277;28;20223;-76
2021/12/31 10:30:04;;;;;;;0.63;0.50;;;;;;;13.84;85.78;100762.19;5090169;28;20174;-76
2021/12/31 10:32:40;;;;;;;2.93;0.50;;;;;;;13.72;87.21;100754.63;5093649;28;20594;-76
2021/12/31 10:35:12;;;;;;;0.10;0.10;;;;;;;13.64;87.70;100758.19;5093635;28;20629;-76
2021/12/31 10:37:42;;;;;;;3.80;0.50;;;;;;;13.63;87.96;100768.38;5093941;28;20298;-75
2021/12/31 10:40:08;;;;;;;0.30;0.30;;;;;;;13.75;86.23;100772.41;5093886;28;20210;-76
2021/12/31 10:42:34;;;;;;;0.00;0.00;;;;;;;13.70;87.30;100760.44;5093395;28;20260;-75
2021/12/31 10:45:02;;;;;;;1.90;0.83;;;;;;;13.76;85.74;100741.88;5093477;28;20614;-76
2021/12/31 10:47:42;;;;;;;0.37;0.20;;;;;;;13.77;86.08;100740.75;5092283;28;20625;-76
2021/12/31 10:50:19;;;;;;;0.30;0.30;;;;;;;13.71;86.64;100744.78;5093587;28;20174;-76
2021/12/31 10:52:55;;;;;;;0.60;0.40;;;;;;;13.74;86.16;100746.84;5093635;28;20205;-75
2021/12/31 10:55:26;;;;;;;2.37;0.90;;;;;;;13.81;85.37;100733.47;5093265;28;20230;-75
2021/12/31 10:57:52;;;;;;;0.50;0.50;;;;;;;13.76;86.04;100733.63;5093379;28;20170;-76
2021/12/31 11:00:19;;;;;;;0.50;0.40;;;;;;;13.77;85.80;100737.19;5093359;28;20236;-76
2021/12/31 11:02:45;;;;;;;1.07;1.07;;;;;;;13.82;85.22;100753.50;5093287;28;20174;-76
2021/12/31 11:05:12;;;;;;;0.60;0.60;;;;;;;13.73;86.02;100728.78;5093087;28;20170;-76
2021/12/31 11:07:41;;;;;;;0.63;0.53;;;;;;;13.64;86.92;100747.22;5093249;28;20181;-76
2021/12/31 11:10:09;;;;;;;0.80;0.80;;;;;;;13.72;86.18;100734.59;5093296;28;20178;-76
2021/12/31 11:12:34;;;;;;;0.83;0.73;;;;;;;13.64;87.37;100717.81;5093117;28;20281;-76
2021/12/31 11:15:01;;;;;;;0.30;0.30;;;;;;;13.65;87.29;100727.66;5092795;28;20268;-76
2021/12/31 11:17:26;;;;;;;0.60;0.60;;;;;;;13.67;87.27;100725.41;5093261;28;20288;-76
2021/12/31 11:19:52;;;;;;;0.37;0.37;;;;;;;13.69;87.08;100725.88;5093017;28;20651;-75
2021/12/31 11:22:24;;;;;;;0.60;0.60;;;;;;;13.82;85.61;100728.78;5092930;28;20190;-76